createdAt,value
2018-04-22T00:00:06.569Z,979.48
2018-04-22T00:01:07.066Z,979.45
2018-04-22T00:02:07.069Z,979.48
2018-04-22T00:03:06.317Z,979.44
2018-04-22T00:04:06.247Z,979.43
2018-04-22T00:05:06.172Z,979.47
2018-04-22T00:06:06.105Z,979.51
2018-04-22T00:07:06.028Z,979.47
2018-04-22T00:08:05.954Z,979.48
2018-04-22T00:09:05.894Z,979.46
2018-04-22T00:10:05.818Z,979.47
2018-04-22T00:11:07.069Z,979.42
2018-04-22T00:12:05.671Z,979.38
2018-04-22T00:13:05.591Z,979.42
2018-04-22T00:14:05.519Z,979.42
2018-04-22T00:15:05.464Z,979.38
2018-04-22T00:16:05.375Z,979.35
2018-04-22T00:17:05.311Z,979.39
2018-04-22T00:18:05.227Z,979.38
2018-04-22T00:19:05.155Z,979.39
2018-04-22T00:20:05.085Z,979.41
2018-04-22T00:21:05.020Z,979.38
2018-04-22T00:22:04.936Z,979.34
2018-04-22T00:23:04.861Z,979.37
2018-04-22T00:24:04.793Z,979.38
2018-04-22T00:25:04.718Z,979.35
2018-04-22T00:26:04.643Z,979.38
2018-04-22T00:27:05.077Z,979.39
2018-04-22T00:28:04.522Z,979.39
2018-04-22T00:29:04.425Z,979.37
2018-04-22T00:30:04.353Z,979.35
2018-04-22T00:31:04.281Z,979.34
2018-04-22T00:32:04.215Z,979.29
2018-04-22T00:33:05.574Z,979.32
2018-04-22T00:34:04.062Z,979.31
2018-04-22T00:35:03.991Z,979.32
2018-04-22T00:36:03.932Z,979.29
2018-04-22T00:37:03.857Z,979.33
2018-04-22T00:38:04.577Z,979.32
2018-04-22T00:39:03.696Z,979.30
2018-04-22T00:40:03.625Z,979.31
2018-04-22T00:41:03.559Z,979.30
2018-04-22T00:42:03.477Z,979.28
2018-04-22T00:43:03.404Z,979.27
2018-04-22T00:44:03.334Z,979.26
2018-04-22T00:45:04.082Z,979.25
2018-04-22T00:46:03.187Z,979.25
2018-04-22T00:47:03.113Z,979.27
2018-04-22T00:48:03.053Z,979.25
2018-04-22T00:49:02.972Z,979.21
2018-04-22T00:50:02.897Z,979.23
2018-04-22T00:51:02.823Z,979.22
2018-04-22T00:52:02.750Z,979.23
2018-04-22T00:53:02.707Z,979.21
2018-04-22T00:54:02.603Z,979.19
2018-04-22T00:55:02.529Z,979.18
2018-04-22T00:56:03.085Z,979.19
2018-04-22T00:57:02.383Z,979.18
2018-04-22T00:58:02.312Z,979.17
2018-04-22T00:59:02.245Z,979.13
2018-04-22T01:00:02.167Z,979.18
2018-04-22T01:01:02.094Z,979.20
2018-04-22T01:02:02.020Z,979.18
2018-04-22T01:03:01.945Z,979.16
2018-04-22T01:04:01.872Z,979.16
2018-04-22T01:05:01.807Z,979.19
2018-04-22T01:06:01.731Z,979.17
2018-04-22T01:07:01.674Z,979.16
2018-04-22T01:08:02.088Z,979.15
2018-04-22T01:09:02.089Z,979.17
2018-04-22T01:10:01.433Z,979.17
2018-04-22T01:11:01.362Z,979.16
2018-04-22T01:12:01.289Z,979.15
2018-04-22T01:13:01.216Z,979.13
2018-04-22T01:14:01.143Z,979.14
2018-04-22T01:15:01.068Z,979.12
2018-04-22T01:16:00.998Z,979.14
2018-04-22T01:17:00.922Z,979.15
2018-04-22T01:18:00.856Z,979.16
2018-04-22T01:19:00.798Z,979.11
2018-04-22T01:20:00.701Z,979.12
2018-04-22T01:21:00.637Z,979.12
2018-04-22T01:22:00.561Z,979.09
2018-04-22T01:23:00.485Z,979.11
2018-04-22T01:24:00.415Z,979.09
2018-04-22T01:25:01.094Z,979.08
2018-04-22T01:26:00.268Z,979.09
2018-04-22T01:27:00.197Z,979.07
2018-04-22T01:28:00.121Z,979.07
2018-04-22T01:29:00.048Z,979.11
2018-04-22T01:29:59.980Z,979.10
2018-04-22T01:30:59.900Z,979.11
2018-04-22T01:32:00.614Z,979.09
2018-04-22T01:32:59.754Z,979.08
2018-04-22T01:33:59.686Z,979.11
2018-04-22T01:34:59.609Z,979.08
2018-04-22T01:35:59.533Z,979.10
2018-04-22T01:36:59.464Z,979.11
2018-04-22T01:37:59.388Z,979.14
2018-04-22T01:38:59.316Z,979.09
2018-04-22T01:39:59.242Z,979.13
2018-04-22T01:40:59.168Z,979.12
2018-04-22T01:41:59.098Z,979.13
2018-04-22T01:42:59.022Z,979.11
2018-04-22T01:43:58.951Z,979.11
2018-04-22T01:44:58.876Z,979.09
2018-04-22T01:45:58.807Z,979.10
2018-04-22T01:46:58.725Z,979.12
2018-04-22T01:47:58.664Z,979.11
2018-04-22T01:48:58.579Z,979.11
2018-04-22T01:49:59.604Z,979.11
2018-04-22T01:50:58.441Z,979.06
2018-04-22T01:51:58.362Z,979.06
2018-04-22T01:52:58.310Z,979.06
2018-04-22T01:53:58.213Z,979.02
2018-04-22T01:54:59.103Z,979.03
2018-04-22T01:55:58.617Z,979.05
2018-04-22T01:56:57.996Z,979.06
2018-04-22T01:57:57.922Z,979.07
2018-04-22T01:58:57.845Z,979.07
2018-04-22T01:59:57.772Z,979.02
2018-04-22T02:00:57.736Z,979.04
2018-04-22T02:01:57.626Z,979.03
2018-04-22T02:02:57.550Z,979.01
2018-04-22T02:03:57.478Z,978.99
2018-04-22T02:04:57.410Z,979.01
2018-04-22T02:05:57.330Z,979.03
2018-04-22T02:06:57.259Z,978.98
2018-04-22T02:07:57.182Z,978.99
2018-04-22T02:08:57.108Z,979.02
2018-04-22T02:09:57.035Z,978.98
2018-04-22T02:10:56.960Z,978.96
2018-04-22T02:11:56.956Z,978.97
2018-04-22T02:12:56.820Z,978.95
2018-04-22T02:13:56.740Z,978.96
2018-04-22T02:14:56.668Z,978.90
2018-04-22T02:15:56.597Z,978.95
2018-04-22T02:16:56.521Z,978.95
2018-04-22T02:17:56.446Z,978.93
2018-04-22T02:18:56.371Z,978.94
2018-04-22T02:19:56.306Z,978.96
2018-04-22T02:20:56.225Z,978.94
2018-04-22T02:21:56.150Z,978.92
2018-04-22T02:22:56.078Z,978.94
2018-04-22T02:23:56.002Z,978.94
2018-04-22T02:24:55.931Z,978.92
2018-04-22T02:25:55.859Z,978.88
2018-04-22T02:26:55.785Z,978.91
2018-04-22T02:27:55.712Z,978.90
2018-04-22T02:28:55.636Z,978.89
2018-04-22T02:29:55.564Z,978.89
2018-04-22T02:30:55.500Z,978.88
2018-04-22T02:31:55.414Z,978.88
2018-04-22T02:32:55.343Z,978.90
2018-04-22T02:33:55.290Z,978.90
2018-04-22T02:34:55.191Z,978.89
2018-04-22T02:35:55.118Z,978.88
2018-04-22T02:36:55.046Z,978.85
2018-04-22T02:37:54.990Z,978.87
2018-04-22T02:38:54.897Z,978.83
2018-04-22T02:39:54.826Z,978.83
2018-04-22T02:40:54.750Z,978.83
2018-04-22T02:41:54.675Z,978.86
2018-04-22T02:42:54.606Z,978.83
2018-04-22T02:43:54.529Z,978.81
2018-04-22T02:44:54.467Z,978.86
2018-04-22T02:45:54.383Z,978.84
2018-04-22T02:46:54.309Z,978.83
2018-04-22T02:47:54.232Z,978.82
2018-04-22T02:48:54.159Z,978.84
2018-04-22T02:49:54.084Z,978.82
2018-04-22T02:50:54.010Z,978.84
2018-04-22T02:51:53.937Z,978.86
2018-04-22T02:52:53.869Z,978.83
2018-04-22T02:53:53.789Z,978.83
2018-04-22T02:54:53.719Z,978.86
2018-04-22T02:55:53.669Z,978.83
2018-04-22T02:56:53.569Z,978.82
2018-04-22T02:57:53.498Z,978.82
2018-04-22T02:58:53.417Z,978.85
2018-04-22T02:59:53.356Z,978.83
2018-04-22T03:00:53.271Z,978.79
2018-04-22T03:01:53.199Z,978.83
2018-04-22T03:02:53.123Z,978.80
2018-04-22T03:03:53.056Z,978.79
2018-04-22T03:04:52.980Z,978.80
2018-04-22T03:05:52.909Z,978.78
2018-04-22T03:06:52.828Z,978.76
2018-04-22T03:07:52.754Z,978.79
2018-04-22T03:08:52.681Z,978.81
2018-04-22T03:09:52.605Z,978.79
2018-04-22T03:10:52.532Z,978.83
2018-04-22T03:11:52.457Z,978.81
2018-04-22T03:12:52.384Z,978.78
2018-04-22T03:13:52.309Z,978.82
2018-04-22T03:14:52.239Z,978.81
2018-04-22T03:15:52.165Z,978.83
2018-04-22T03:16:52.092Z,978.82
2018-04-22T03:17:52.025Z,978.80
2018-04-22T03:18:51.940Z,978.77
2018-04-22T03:19:51.880Z,978.79
2018-04-22T03:20:51.794Z,978.78
2018-04-22T03:21:51.718Z,978.80
2018-04-22T03:22:51.654Z,978.80
2018-04-22T03:23:51.572Z,978.77
2018-04-22T03:24:51.497Z,978.79
2018-04-22T03:25:51.467Z,978.79
2018-04-22T03:26:51.348Z,978.76
2018-04-22T03:27:51.273Z,978.77
2018-04-22T03:28:51.201Z,978.78
2018-04-22T03:29:51.129Z,978.79
2018-04-22T03:30:51.056Z,978.78
2018-04-22T03:31:50.979Z,978.76
2018-04-22T03:32:50.959Z,978.78
2018-04-22T03:33:50.833Z,978.77
2018-04-22T03:34:50.765Z,978.77
2018-04-22T03:35:50.679Z,978.76
2018-04-22T03:36:50.608Z,978.77
2018-04-22T03:37:50.533Z,978.79
2018-04-22T03:38:50.462Z,978.79
2018-04-22T03:39:50.387Z,978.79
2018-04-22T03:40:50.322Z,978.78
2018-04-22T03:41:50.242Z,978.77
2018-04-22T03:42:50.165Z,978.75
2018-04-22T03:43:50.090Z,978.74
2018-04-22T03:44:50.014Z,978.75
2018-04-22T03:45:49.942Z,978.73
2018-04-22T03:46:49.868Z,978.72
2018-04-22T03:47:49.797Z,978.74
2018-04-22T03:48:49.731Z,978.77
2018-04-22T03:49:49.645Z,978.75
2018-04-22T03:50:49.590Z,978.79
2018-04-22T03:51:49.499Z,978.79
2018-04-22T03:52:49.423Z,978.78
2018-04-22T03:53:49.357Z,978.76
2018-04-22T03:54:49.299Z,978.78
2018-04-22T03:55:49.202Z,978.81
2018-04-22T03:56:49.128Z,978.82
2018-04-22T03:57:49.052Z,978.82
2018-04-22T03:58:48.979Z,978.81
2018-04-22T03:59:48.902Z,978.81
2018-04-22T04:00:48.841Z,978.87
2018-04-22T04:01:48.753Z,978.80
2018-04-22T04:02:48.678Z,978.83
2018-04-22T04:03:48.605Z,978.80
2018-04-22T04:04:48.535Z,978.83
2018-04-22T04:05:48.458Z,978.83
2018-04-22T04:06:48.384Z,978.83
2018-04-22T04:07:48.315Z,978.83
2018-04-22T04:08:48.235Z,978.81
2018-04-22T04:09:48.162Z,978.81
2018-04-22T04:10:48.098Z,978.81
2018-04-22T04:11:48.010Z,978.82
2018-04-22T04:12:47.937Z,978.86
2018-04-22T04:13:47.863Z,978.82
2018-04-22T04:14:47.789Z,978.85
2018-04-22T04:15:47.715Z,978.85
2018-04-22T04:16:47.643Z,978.85
2018-04-22T04:17:47.569Z,978.84
2018-04-22T04:18:47.489Z,978.81
2018-04-22T04:19:47.415Z,978.85
2018-04-22T04:20:47.347Z,978.85
2018-04-22T04:21:47.263Z,978.82
2018-04-22T04:22:47.192Z,978.85
2018-04-22T04:23:47.117Z,978.86
2018-04-22T04:24:47.047Z,978.89
2018-04-22T04:25:46.969Z,978.86
2018-04-22T04:26:46.897Z,978.90
2018-04-22T04:27:46.823Z,978.85
2018-04-22T04:28:46.745Z,978.89
2018-04-22T04:29:46.671Z,978.89
2018-04-22T04:30:46.630Z,978.90
2018-04-22T04:31:46.525Z,978.86
2018-04-22T04:32:46.448Z,978.88
2018-04-22T04:33:46.371Z,978.86
2018-04-22T04:34:46.298Z,978.87
2018-04-22T04:35:46.226Z,978.90
2018-04-22T04:36:46.150Z,978.89
2018-04-22T04:37:46.074Z,978.91
2018-04-22T04:40:28.672Z,978.91
2018-04-22T04:41:28.509Z,978.91
2018-04-22T04:42:28.439Z,978.93
2018-04-22T04:43:28.404Z,978.91
2018-04-22T04:44:28.282Z,978.94
2018-04-22T04:45:28.208Z,978.96
2018-04-22T04:46:28.138Z,978.93
2018-04-22T04:47:28.061Z,978.93
2018-04-22T04:48:27.997Z,978.97
2018-04-22T04:49:27.912Z,978.99
2018-04-22T04:50:27.840Z,978.97
2018-04-22T04:51:27.761Z,978.99
2018-04-22T04:52:27.688Z,978.97
2018-04-22T04:53:27.613Z,978.99
2018-04-22T04:54:27.536Z,978.96
2018-04-22T04:55:27.463Z,979.03
2018-04-22T04:56:27.396Z,979.05
2018-04-22T04:57:27.315Z,979.01
2018-04-22T04:58:27.238Z,979.02
2018-04-22T04:59:27.164Z,979.03
2018-04-22T05:00:27.091Z,978.98
2018-04-22T05:01:27.017Z,979.01
2018-04-22T05:02:26.939Z,979.05
2018-04-22T05:03:26.865Z,979.01
2018-04-22T05:04:26.793Z,979.05
2018-04-22T05:05:26.721Z,979.02
2018-04-22T05:06:26.653Z,979.03
2018-04-22T05:07:26.567Z,979.09
2018-04-22T05:08:26.495Z,979.06
2018-04-22T05:09:26.416Z,979.04
2018-04-22T05:10:26.341Z,979.03
2018-04-22T05:11:26.270Z,978.98
2018-04-22T05:12:26.206Z,979.00
2018-04-22T05:13:26.144Z,979.02
2018-04-22T05:14:26.044Z,978.95
2018-04-22T05:15:25.972Z,978.97
2018-04-22T05:16:25.912Z,978.98
2018-04-22T05:17:25.823Z,978.98
2018-04-22T05:18:25.745Z,978.98
2018-04-22T05:19:25.671Z,978.96
2018-04-22T05:20:25.595Z,979.00
2018-04-22T05:21:25.543Z,979.00
2018-04-22T05:22:25.461Z,979.01
2018-04-22T05:23:25.374Z,978.99
2018-04-22T05:24:25.341Z,979.03
2018-04-22T05:25:25.232Z,979.00
2018-04-22T05:26:25.151Z,979.03
2018-04-22T05:27:25.073Z,978.98
2018-04-22T05:28:25.000Z,979.00
2018-04-22T05:29:24.935Z,979.01
2018-04-22T05:30:24.870Z,979.00
2018-04-22T05:31:24.777Z,979.00
2018-04-22T05:32:24.717Z,979.03
2018-04-22T05:33:24.631Z,979.04
2018-04-22T05:34:24.560Z,979.03
2018-04-22T05:35:24.481Z,979.02
2018-04-22T05:36:24.447Z,979.05
2018-04-22T05:37:24.330Z,979.02
2018-04-22T05:38:24.255Z,979.00
2018-04-22T05:39:24.196Z,979.01
2018-04-22T05:40:24.105Z,978.98
2018-04-22T05:41:24.032Z,978.98
2018-04-22T05:42:23.977Z,979.02
2018-04-22T05:43:23.881Z,979.01
2018-04-22T05:44:23.817Z,978.99
2018-04-22T05:45:24.044Z,979.00
2018-04-22T05:46:23.665Z,978.98
2018-04-22T05:47:23.589Z,978.97
2018-04-22T05:48:23.512Z,979.00
2018-04-22T05:49:23.443Z,978.95
2018-04-22T05:50:23.362Z,978.96
2018-04-22T05:51:23.295Z,978.97
2018-04-22T05:52:23.218Z,978.95
2018-04-22T05:53:23.140Z,978.95
2018-04-22T05:54:23.071Z,978.93
2018-04-22T05:55:22.989Z,978.90
2018-04-22T05:56:22.918Z,978.94
2018-04-22T05:57:22.842Z,978.94
2018-04-22T05:58:22.771Z,978.92
2018-04-22T05:59:22.698Z,978.94
2018-04-22T06:00:22.638Z,978.95
2018-04-22T06:01:22.548Z,978.95
2018-04-22T06:02:22.472Z,978.97
2018-04-22T06:03:22.406Z,979.01
2018-04-22T06:04:22.326Z,978.97
2018-04-22T06:05:22.258Z,979.00
2018-04-22T06:06:22.193Z,979.02
2018-04-22T06:07:22.102Z,978.97
2018-04-22T06:08:22.029Z,979.02
2018-04-22T06:09:21.955Z,979.00
2018-04-22T06:10:21.897Z,979.01
2018-04-22T06:11:21.809Z,979.04
2018-04-22T06:12:21.733Z,979.03
2018-04-22T06:13:21.664Z,979.03
2018-04-22T06:14:21.596Z,979.04
2018-04-22T06:15:21.521Z,979.05
2018-04-22T06:16:21.443Z,979.04
2018-04-22T06:17:21.413Z,979.03
2018-04-22T06:18:21.296Z,979.05
2018-04-22T06:19:21.220Z,979.03
2018-04-22T06:20:21.145Z,979.02
2018-04-22T06:21:21.071Z,979.02
2018-04-22T06:22:20.997Z,979.02
2018-04-22T06:23:20.925Z,979.01
2018-04-22T06:24:20.853Z,979.01
2018-04-22T06:25:20.776Z,978.98
2018-04-22T06:26:20.705Z,979.00
2018-04-22T06:27:20.633Z,978.97
2018-04-22T06:28:20.587Z,978.96
2018-04-22T06:29:20.484Z,978.98
2018-04-22T06:30:20.423Z,978.99
2018-04-22T06:31:20.336Z,978.98
2018-04-22T06:32:20.262Z,978.97
2018-04-22T06:33:20.193Z,979.00
2018-04-22T06:34:20.130Z,978.93
2018-04-22T06:35:20.051Z,978.95
2018-04-22T06:36:19.970Z,978.95
2018-04-22T06:37:19.898Z,978.91
2018-04-22T06:38:19.823Z,978.92
2018-04-22T06:39:19.767Z,978.98
2018-04-22T06:40:19.685Z,978.96
2018-04-22T06:41:19.606Z,978.96
2018-04-22T06:42:19.532Z,978.96
2018-04-22T06:43:19.455Z,978.93
2018-04-22T06:44:19.390Z,978.91
2018-04-22T06:45:19.315Z,978.89
2018-04-22T06:46:19.240Z,978.91
2018-04-22T06:47:19.168Z,978.91
2018-04-22T06:48:19.093Z,978.93
2018-04-22T06:49:19.029Z,978.96
2018-04-22T06:50:18.946Z,978.94
2018-04-22T06:51:18.875Z,978.97
2018-04-22T06:52:18.800Z,978.92
2018-04-22T06:53:18.751Z,978.92
2018-04-22T06:54:18.655Z,978.94
2018-04-22T06:55:18.582Z,978.94
2018-04-22T06:56:18.514Z,978.96
2018-04-22T06:57:18.444Z,978.97
2018-04-22T06:58:18.364Z,978.95
2018-04-22T06:59:18.309Z,978.96
2018-04-22T07:00:18.220Z,978.92
2018-04-22T07:01:18.146Z,978.93
2018-04-22T07:02:18.078Z,978.92
2018-04-22T07:03:18.008Z,978.93
2018-04-22T07:04:17.930Z,978.91
2018-04-22T07:05:17.859Z,978.94
2018-04-22T07:06:17.786Z,978.93
2018-04-22T07:07:17.711Z,978.92
2018-04-22T07:08:17.638Z,978.91
2018-04-22T07:09:17.568Z,978.93
2018-04-22T07:10:17.493Z,978.92
2018-04-22T07:11:17.421Z,978.90
2018-04-22T07:12:17.349Z,978.92
2018-04-22T07:13:17.275Z,978.94
2018-04-22T07:14:17.203Z,978.92
2018-04-22T07:15:17.132Z,978.92
2018-04-22T07:16:17.059Z,978.91
2018-04-22T07:17:16.989Z,978.89
2018-04-22T07:18:16.920Z,978.87
2018-04-22T07:19:16.851Z,978.90
2018-04-22T07:20:16.842Z,978.88
2018-04-22T07:21:16.698Z,978.89
2018-04-22T07:22:16.625Z,978.88
2018-04-22T07:23:16.554Z,978.90
2018-04-22T07:24:16.487Z,978.88
2018-04-22T07:25:16.410Z,978.88
2018-04-22T07:26:16.340Z,978.91
2018-04-22T07:27:16.270Z,978.91
2018-04-22T07:28:16.192Z,978.91
2018-04-22T07:29:16.178Z,978.94
2018-04-22T07:30:16.048Z,978.92
2018-04-22T07:31:15.975Z,978.91
2018-04-22T07:32:15.947Z,978.94
2018-04-22T07:33:15.835Z,978.94
2018-04-22T07:34:15.760Z,978.93
2018-04-22T07:35:15.690Z,978.92
2018-04-22T07:36:15.621Z,978.93
2018-04-22T07:37:15.544Z,978.93
2018-04-22T07:38:15.479Z,978.95
2018-04-22T07:39:15.401Z,978.95
2018-04-22T07:40:15.333Z,978.89
2018-04-22T07:41:15.301Z,978.95
2018-04-22T07:42:15.186Z,978.96
2018-04-22T07:43:15.114Z,978.93
2018-04-22T07:44:15.045Z,978.91
2018-04-22T07:45:14.972Z,978.91
2018-04-22T07:46:14.901Z,978.92
2018-04-22T07:47:14.827Z,978.88
2018-04-22T07:48:14.760Z,978.91
2018-04-22T07:49:14.683Z,978.92
2018-04-22T07:50:14.618Z,978.88
2018-04-22T07:51:14.542Z,978.92
2018-04-22T07:52:14.478Z,978.89
2018-04-22T07:53:14.406Z,978.86
2018-04-22T07:54:14.324Z,978.89
2018-04-22T07:55:14.251Z,978.86
2018-04-22T07:56:14.182Z,978.88
2018-04-22T07:57:14.110Z,978.83
2018-04-22T07:58:14.042Z,978.82
2018-04-22T07:59:13.973Z,978.82
2018-04-22T08:00:13.898Z,978.80
2018-04-22T08:01:13.828Z,978.81
2018-04-22T08:02:13.783Z,978.80
2018-04-22T08:03:13.681Z,978.84
2018-04-22T08:04:13.609Z,978.82
2018-04-22T08:05:13.540Z,978.81
2018-04-22T08:06:13.467Z,978.78
2018-04-22T08:07:13.406Z,978.80
2018-04-22T08:08:13.329Z,978.81
2018-04-22T08:09:13.255Z,978.82
2018-04-22T08:10:13.184Z,978.81
2018-04-22T08:11:13.111Z,978.82
2018-04-22T08:12:13.043Z,978.80
2018-04-22T08:13:12.970Z,978.78
2018-04-22T08:14:12.899Z,978.79
2018-04-22T08:15:12.825Z,978.78
2018-04-22T08:16:12.766Z,978.81
2018-04-22T08:17:12.685Z,978.80
2018-04-22T08:18:12.612Z,978.78
2018-04-22T08:19:12.551Z,978.75
2018-04-22T08:20:12.471Z,978.76
2018-04-22T08:21:12.402Z,978.76
2018-04-22T08:22:12.329Z,978.75
2018-04-22T08:23:12.260Z,978.77
2018-04-22T08:24:12.196Z,978.78
2018-04-22T08:25:12.118Z,978.79
2018-04-22T08:26:12.045Z,978.76
2018-04-22T08:27:11.974Z,978.76
2018-04-22T08:28:11.946Z,978.75
2018-04-22T08:29:11.835Z,978.75
2018-04-22T08:30:11.768Z,978.77
2018-04-22T08:31:11.691Z,978.74
2018-04-22T08:32:11.627Z,978.71
2018-04-22T08:33:11.554Z,978.70
2018-04-22T08:34:11.477Z,978.73
2018-04-22T08:35:11.447Z,978.70
2018-04-22T08:36:11.343Z,978.72
2018-04-22T08:37:11.268Z,978.74
2018-04-22T08:38:11.204Z,978.73
2018-04-22T08:39:11.126Z,978.72
2018-04-22T08:40:11.056Z,978.72
2018-04-22T08:41:10.987Z,978.75
2018-04-22T08:42:10.913Z,978.69
2018-04-22T08:43:10.870Z,978.72
2018-04-22T08:44:10.775Z,978.71
2018-04-22T08:45:10.707Z,978.73
2018-04-22T08:46:10.645Z,978.71
2018-04-22T08:47:10.574Z,978.70
2018-04-22T08:48:10.510Z,978.71
2018-04-22T08:49:10.427Z,978.69
2018-04-22T08:50:10.350Z,978.69
2018-04-22T08:51:10.297Z,978.72
2018-04-22T08:52:10.224Z,978.73
2018-04-22T08:53:10.141Z,978.71
2018-04-22T08:54:10.067Z,978.73
2018-04-22T08:55:10.008Z,978.74
2018-04-22T08:56:09.932Z,978.72
2018-04-22T08:57:09.860Z,978.70
2018-04-22T08:58:09.788Z,978.72
2018-04-22T08:59:09.728Z,978.76
2018-04-22T09:00:09.678Z,978.76
2018-04-22T09:01:09.581Z,978.75
2018-04-22T09:02:09.544Z,978.75
2018-04-22T09:03:09.437Z,978.75
2018-04-22T09:04:09.369Z,978.76
2018-04-22T09:05:09.299Z,978.77
2018-04-22T09:06:09.293Z,978.80
2018-04-22T09:07:09.158Z,978.78
2018-04-22T09:08:09.087Z,978.78
2018-04-22T09:09:09.026Z,978.76
2018-04-22T09:10:08.952Z,978.74
2018-04-22T09:11:08.878Z,978.73
2018-04-22T09:12:08.812Z,978.66
2018-04-22T09:13:08.747Z,978.68
2018-04-22T09:14:08.669Z,978.71
2018-04-22T09:15:08.600Z,978.72
2018-04-22T09:16:08.539Z,978.69
2018-04-22T09:17:08.460Z,978.72
2018-04-22T09:18:08.394Z,978.66
2018-04-22T09:19:08.322Z,978.65
2018-04-22T09:20:08.254Z,978.67
2018-04-22T09:21:08.183Z,978.66
2018-04-22T09:22:08.113Z,978.65
2018-04-22T09:23:08.044Z,978.59
2018-04-22T09:24:07.974Z,978.62
2018-04-22T09:25:07.907Z,978.60
2018-04-22T09:26:07.835Z,978.64
2018-04-22T09:27:07.763Z,978.61
2018-04-22T09:28:07.695Z,978.60
2018-04-22T09:29:07.630Z,978.59
2018-04-22T09:30:07.559Z,978.64
2018-04-22T09:31:07.488Z,978.62
2018-04-22T09:32:07.436Z,978.63
2018-04-22T09:33:07.402Z,978.64
2018-04-22T09:34:07.280Z,978.63
2018-04-22T09:35:07.209Z,978.63
2018-04-22T09:36:07.144Z,978.62
2018-04-22T09:37:07.075Z,978.59
2018-04-22T09:38:07.003Z,978.60
2018-04-22T09:39:06.936Z,978.56
2018-04-22T09:40:06.867Z,978.56
2018-04-22T09:41:06.796Z,978.57
2018-04-22T09:42:06.727Z,978.55
2018-04-22T09:43:06.692Z,978.51
2018-04-22T09:44:06.605Z,978.52
2018-04-22T09:45:06.522Z,978.50
2018-04-22T09:46:06.450Z,978.50
2018-04-22T09:47:06.381Z,978.45
2018-04-22T09:48:06.310Z,978.47
2018-04-22T09:49:06.243Z,978.48
2018-04-22T09:50:06.174Z,978.43
2018-04-22T09:51:06.104Z,978.43
2018-04-22T09:52:06.036Z,978.40
2018-04-22T09:53:05.969Z,978.38
2018-04-22T09:54:05.900Z,978.40
2018-04-22T09:55:05.828Z,978.38
2018-04-22T09:56:05.763Z,978.37
2018-04-22T09:57:05.692Z,978.40
2018-04-22T09:58:05.680Z,978.38
2018-04-22T09:59:05.552Z,978.37
2018-04-22T10:00:05.484Z,978.36
2018-04-22T10:01:05.416Z,978.39
2018-04-22T10:02:05.345Z,978.35
2018-04-22T10:03:05.283Z,978.36
2018-04-22T10:04:05.208Z,978.32
2018-04-22T10:05:05.141Z,978.30
2018-04-22T10:06:05.071Z,978.30
2018-04-22T10:07:05.012Z,978.29
2018-04-22T10:08:04.934Z,978.27
2018-04-22T10:09:04.870Z,978.27
2018-04-22T10:10:04.795Z,978.26
2018-04-22T10:11:04.728Z,978.24
2018-04-22T10:12:04.658Z,978.23
2018-04-22T10:13:04.607Z,978.24
2018-04-22T10:14:04.521Z,978.25
2018-04-22T10:15:04.452Z,978.23
2018-04-22T10:16:04.385Z,978.24
2018-04-22T10:17:04.316Z,978.22
2018-04-22T10:18:04.245Z,978.23
2018-04-22T10:19:04.179Z,978.23
2018-04-22T10:20:04.109Z,978.16
2018-04-22T10:21:04.043Z,978.19
2018-04-22T10:22:03.975Z,978.19
2018-04-22T10:23:03.906Z,978.14
2018-04-22T10:24:03.837Z,978.16
2018-04-22T10:25:03.769Z,978.17
2018-04-22T10:26:03.704Z,978.13
2018-04-22T10:27:03.632Z,978.14
2018-04-22T10:28:03.577Z,978.14
2018-04-22T10:29:03.497Z,978.13
2018-04-22T10:30:03.428Z,978.10
2018-04-22T10:31:03.359Z,978.14
2018-04-22T10:32:03.293Z,978.12
2018-04-22T10:33:03.224Z,978.08
2018-04-22T10:34:03.156Z,978.10
2018-04-22T10:35:03.093Z,978.11
2018-04-22T10:36:03.051Z,978.10
2018-04-22T10:37:02.953Z,978.09
2018-04-22T10:38:02.883Z,978.05
2018-04-22T10:39:02.816Z,978.04
2018-04-22T10:40:02.763Z,978.05
2018-04-22T10:41:02.687Z,978.05
2018-04-22T10:42:02.677Z,978.00
2018-04-22T10:43:02.546Z,978.01
2018-04-22T10:44:02.480Z,978.02
2018-04-22T10:45:02.413Z,978.02
2018-04-22T10:46:02.346Z,977.98
2018-04-22T10:47:02.279Z,977.95
2018-04-22T10:48:02.209Z,977.98
2018-04-22T10:49:02.140Z,977.97
2018-04-22T10:50:02.075Z,977.96
2018-04-22T10:51:02.020Z,977.97
2018-04-22T10:52:01.944Z,977.99
2018-04-22T10:53:01.881Z,977.96
2018-04-22T10:54:01.806Z,977.96
2018-04-22T10:55:01.829Z,977.92
2018-04-22T10:56:01.673Z,977.95
2018-04-22T10:57:01.621Z,977.87
2018-04-22T10:58:01.615Z,977.88
2018-04-22T10:59:01.471Z,977.89
2018-04-22T11:00:01.404Z,977.90
2018-04-22T11:01:01.337Z,977.85
2018-04-22T11:02:01.279Z,977.86
2018-04-22T11:03:01.212Z,977.84
2018-04-22T11:04:01.139Z,977.82
2018-04-22T11:05:01.107Z,977.84
2018-04-22T11:06:01.002Z,977.78
2018-04-22T11:07:00.936Z,977.82
2018-04-22T11:08:00.867Z,977.82
2018-04-22T11:09:00.804Z,977.81
2018-04-22T11:10:00.738Z,977.80
2018-04-22T11:11:01.315Z,977.78
2018-04-22T11:12:00.601Z,977.75
2018-04-22T11:13:00.535Z,977.75
2018-04-22T11:14:00.470Z,977.78
2018-04-22T11:15:00.405Z,977.74
2018-04-22T11:16:00.335Z,977.76
2018-04-22T11:17:00.271Z,977.71
2018-04-22T11:18:02.751Z,977.73
2018-04-22T11:19:00.137Z,977.70
2018-04-22T11:20:00.071Z,977.71
2018-04-22T11:21:00.004Z,977.75
2018-04-22T11:21:59.939Z,977.72
2018-04-22T11:22:59.872Z,977.69
2018-04-22T11:23:59.803Z,977.66
2018-04-22T11:24:59.739Z,977.67
2018-04-22T11:25:59.680Z,977.67
2018-04-22T11:26:59.606Z,977.64
2018-04-22T11:27:59.540Z,977.58
2018-04-22T11:28:59.472Z,977.58
2018-04-22T11:29:59.406Z,977.55
2018-04-22T11:30:59.339Z,977.56
2018-04-22T11:31:59.275Z,977.54
2018-04-22T11:32:59.213Z,977.52
2018-04-22T11:33:59.765Z,977.48
2018-04-22T11:34:59.075Z,977.50
2018-04-22T11:35:59.011Z,977.47
2018-04-22T11:36:58.957Z,977.49
2018-04-22T11:37:58.878Z,977.51
2018-04-22T11:38:58.856Z,977.56
2018-04-22T11:39:58.746Z,977.55
2018-04-22T11:40:58.679Z,977.53
2018-04-22T11:41:58.627Z,977.55
2018-04-22T11:42:58.552Z,977.53
2018-04-22T11:43:58.482Z,977.52
2018-04-22T11:44:58.420Z,977.50
2018-04-22T11:45:58.352Z,977.51
2018-04-22T11:46:58.288Z,977.50
2018-04-22T11:47:58.223Z,977.46
2018-04-22T11:48:58.155Z,977.46
2018-04-22T11:49:58.091Z,977.43
2018-04-22T11:50:58.029Z,977.46
2018-04-22T11:51:57.961Z,977.45
2018-04-22T11:52:57.892Z,977.47
2018-04-22T11:53:57.840Z,977.44
2018-04-22T11:54:57.769Z,977.44
2018-04-22T11:55:57.697Z,977.44
2018-04-22T11:56:57.633Z,977.44
2018-04-22T11:57:57.570Z,977.42
2018-04-22T11:58:57.501Z,977.41
2018-04-22T11:59:57.485Z,977.42
2018-04-22T12:00:57.370Z,977.44
2018-04-22T12:01:57.304Z,977.37
2018-04-22T12:02:57.238Z,977.37
2018-04-22T12:03:57.174Z,977.42
2018-04-22T12:04:57.110Z,977.40
2018-04-22T12:05:57.043Z,977.38
2018-04-22T12:06:56.980Z,977.42
2018-04-22T12:07:56.913Z,977.34
2018-04-22T12:08:56.855Z,977.32
2018-04-22T12:09:56.786Z,977.32
2018-04-22T12:10:56.735Z,977.32
2018-04-22T12:11:56.656Z,977.23
2018-04-22T12:12:56.593Z,977.23
2018-04-22T12:13:56.525Z,977.29
2018-04-22T12:14:56.464Z,977.34
2018-04-22T12:15:56.397Z,977.27
2018-04-22T12:16:56.338Z,977.26
2018-04-22T12:17:56.269Z,977.24
2018-04-22T12:18:56.226Z,977.28
2018-04-22T12:19:56.143Z,977.29
2018-04-22T12:20:56.083Z,977.24
2018-04-22T12:21:56.019Z,977.20
2018-04-22T12:22:55.959Z,977.22
2018-04-22T12:23:55.898Z,977.14
2018-04-22T12:24:55.836Z,977.18
2018-04-22T12:25:55.773Z,977.11
2018-04-22T12:26:55.712Z,977.19
2018-04-22T12:27:55.651Z,977.20
2018-04-22T12:28:55.604Z,977.23